Flight Track Log - Related Links

Times and Time Zones

All times are in EDT time to prevent confusion due to time zone crossing. See the ASQ4976 flight status page for this flight to view local times or setup timezone preferences in your user account.

Time Position Orientation Groundspeed Altitude Reporting Facility
EDT Latitude Longitude Course Direction KTS MPH feet Rate Location/Type
Mon 12:46:37 PM 42.7028 -73.8075 184° South 159 183 2,000  Level Boston Center
Mon 12:47:38 PM 42.6567 -73.8319 201° Southwest 259 298 4,000 2,600 Climbing Boston Center
Mon 12:48:37 PM 42.6931 -73.9089 303° West 296 341 7,200 2,773 Climbing Boston Center
Mon 12:49:37 PM 42.7611 -73.9644 329° Northwest 295 339 9,500 2,200 Climbing Boston Center
Mon 12:50:37 PM 42.8142 -74.0478 311° West 290 334 11,600 1,750 Climbing Boston Center
Mon 12:51:37 PM 42.8483 -74.1392 297° West 296 341 13,000 1,350 Climbing Boston Center
Mon 12:52:37 PM 42.8964 -74.2653 298° West 328 377 14,300 1,350 Climbing Boston Center
Mon 12:53:37 PM 42.9239 -74.3739 289° West 343 395 15,700 1,388 Climbing Boston Center
Mon 12:54:38 PM 42.8453 -74.4536 217° Southwest 278 320 17,100 1,300 Climbing Boston Center
Mon 12:55:37 PM 42.7608 -74.4028 156° South 288 331 18,300 1,513 Climbing Boston Center
Mon 12:56:37 PM 42.6556 -74.3317 154° Southeast 352 405 20,100 1,650 Climbing Boston Center
Mon 12:57:37 PM 42.5608 -74.2639 152° Southeast 373 429 21,600 1,250 Climbing Boston Center
Mon 12:58:37 PM 42.4597 -74.1961 154° Southeast 388 447 22,600 1,100 Climbing Boston Center
Mon 12:59:37 PM 42.3567 -74.1231 152° Southeast 406 467 23,800 700 Climbing Boston Center
Mon 01:00:37 PM 42.2450 -74.0528 155° Southeast 427 491 24,000 100 Climbing Boston Center
Mon 01:01:37 PM 42.1217 -74.0831 190° South 429 494 24,000  Level Boston Center
Mon 01:02:37 PM 42.0022 -74.1358 198° South 429 494 24,000  Level Boston Center
Mon 01:04:17 PM 41.8069 -74.1436 182° South 452 520 24,000  Level New York Center
Mon 01:05:18 PM 41.6803 -74.1317 176° South 464 534 24,000  Level New York Center
Mon 01:06:15 PM 41.5556 -74.1256 178° South 464 534 24,000  Level New York Center
Mon 01:07:16 PM 41.4286 -74.1136 176° South 458 527 24,000  Level New York Center
Mon 01:08:16 PM 41.2978 -74.1069 178° South 463 533 24,000  Level New York Center
Mon 01:09:17 PM 41.1594 -74.1389 190° South 454 522 24,000  Level New York Center
Mon 01:10:17 PM 41.0506 -74.2269 211° Southwest 445 512 24,000  Level New York Center
Mon 01:11:16 PM 40.9739 -74.3550 232° Southwest 440 506 24,000  Level New York Center
Mon 01:12:17 PM 40.8969 -74.4825 231° Southwest 431 496 24,000  Level New York Center
Mon 01:13:18 PM 40.8219 -74.6128 233° Southwest 453 521 24,000  Level New York Center
Mon 01:14:17 PM 40.7428 -74.7369 230° Southwest 453 521 24,000  Level New York Center
Mon 01:15:17 PM 40.6656 -74.8694 232° Southwest 460 529 24,000  Level New York Center
Mon 01:16:18 PM 40.5861 -74.9903 229° Southwest 454 522 24,000  Level New York Center
Mon 01:17:19 PM 40.5089 -75.1139 231° Southwest 454 522 24,000  Level New York Center
Mon 01:18:16 PM 40.4333 -75.2372 231° Southwest 454 522 24,000 -51 Level New York Center
Mon 01:19:16 PM 40.3514 -75.3656 230° Southwest 454 522 23,900  Descending New York Center
Mon 01:20:17 PM 40.2756 -75.4856 230° Southwest 454 522 24,000 50 Climbing New York Center
Mon 01:21:17 PM 40.2017 -75.6111 232° Southwest 454 522 24,000 -50 Level New York Center
Mon 01:22:18 PM 40.1336 -75.7447 236° Southwest 454 522 23,900  Descending New York Center
Mon 01:23:16 PM 40.0678 -75.8758 237° Southwest 443 510 24,000  Climbing New York Center
Mon 01:25:30 PM 39.9228 -76.1597 236° Southwest 435 501 23,900 -31 Descending Washington Center
Mon 01:26:28 PM 39.8594 -76.2808 236° Southwest 435 501 23,900 50 Level Washington Center
Mon 01:27:29 PM 39.7942 -76.4097 237° Southwest 435 501 24,000 50 Climbing Washington Center
Mon 01:28:29 PM 39.7203 -76.5358 233° Southwest 435 501 24,000  Level Washington Center
Mon 01:29:28 PM 39.6547 -76.6669 237° Southwest 440 506 24,000  Level Washington Center
Mon 01:30:29 PM 39.5889 -76.7978 237° Southwest 445 512 24,000  Level Washington Center
Mon 01:31:30 PM 39.5122 -76.9392 235° Southwest 445 512 24,000  Level Washington Center
Mon 01:32:28 PM 39.4361 -77.0425 226° Southwest 445 512 24,000  Level Washington Center
Mon 01:33:28 PM 39.3433 -77.1372 218° Southwest 438 504 24,000  Level Washington Center
Mon 01:34:29 PM 39.2481 -77.2372 219° Southwest 438 504 24,000  Level Washington Center
Mon 01:35:30 PM 39.1531 -77.3367 219° Southwest 443 510 24,000  Level Washington Center
Mon 01:36:28 PM 39.0578 -77.4386 220° Southwest 448 516 24,000  Level Washington Center
Mon 01:37:29 PM 38.9517 -77.5456 218° Southwest 448 516 24,000  Level Washington Center
Mon 01:38:30 PM 38.8583 -77.6444 220° Southwest 448 516 24,000  Level Washington Center
Mon 01:39:28 PM 38.7586 -77.7453 218° Southwest 448 516 24,000  Level Washington Center
Mon 01:40:28 PM 38.6758 -77.8308 219° Southwest 453 521 24,000  Level Washington Center
Mon 01:41:28 PM 38.5878 -77.9608 229° Southwest 442 509 24,000  Level Washington Center
Mon 01:42:29 PM 38.5144 -78.0858 233° Southwest 442 509 24,000  Level Washington Center
Mon 01:43:30 PM 38.4472 -78.1975 232° Southwest 442 509 24,000  Level Washington Center
Mon 01:44:30 PM 38.3758 -78.3197 233° Southwest 442 509 24,000  Level Washington Center
Mon 01:45:28 PM 38.3019 -78.4467 233° Southwest 442 509 24,000  Level Washington Center
Mon 01:46:29 PM 38.2236 -78.5811 233° Southwest 448 516 24,000  Level Washington Center
Mon 01:47:29 PM 38.1561 -78.6919 232° Southwest 443 510 24,000  Level Washington Center
Mon 01:48:29 PM 38.0819 -78.8181 233° Southwest 448 516 24,000  Level Washington Center
Mon 01:49:30 PM 38.0056 -78.9439 232° Southwest 448 516 24,000  Level Washington Center
Mon 01:50:28 PM 37.9289 -79.0669 232° Southwest 448 516 24,000  Level Washington Center
Mon 01:51:29 PM 37.8375 -79.2019 229° Southwest 453 521 24,000  Level Washington Center
Mon 01:52:29 PM 37.7525 -79.3189 227° Southwest 458 527 24,000  Level Washington Center
Mon 01:53:30 PM 37.6653 -79.4353 227° Southwest 458 527 24,000  Level Washington Center
Mon 01:54:28 PM 37.5889 -79.5414 228° Southwest 458 527 24,000  Level Washington Center
Mon 01:55:29 PM 37.4969 -79.6703 228° Southwest 458 527 24,000  Level Washington Center
Mon 01:56:30 PM 37.4094 -79.7883 227° Southwest 458 527 24,000  Level Washington Center
Mon 01:57:28 PM 37.3239 -79.9039 227° Southwest 458 527 24,000  Level Washington Center
Mon 01:58:28 PM 37.2383 -80.0189 227° Southwest 453 521 24,000  Level Washington Center
Mon 01:59:29 PM 37.1592 -80.1267 227° Southwest 453 521 24,000  Level Washington Center
Mon 02:00:43 PM 37.0453 -80.2761 226° Southwest 454 522 24,000  Level Atlanta Center
Mon 02:01:43 PM 36.9611 -80.3892 227° Southwest 469 540 24,000  Level Atlanta Center
Mon 02:02:43 PM 36.8769 -80.5044 228° Southwest 464 534 24,000  Level Atlanta Center
Mon 02:03:43 PM 36.7925 -80.6144 226° Southwest 458 527 24,000  Level Atlanta Center
Mon 02:04:43 PM 36.7061 -80.7269 226° Southwest 452 520 24,000  Level Atlanta Center
Mon 02:05:43 PM 36.6214 -80.8417 227° Southwest 452 520 24,000  Level Atlanta Center
Mon 02:06:43 PM 36.5367 -80.9536 227° Southwest 446 513 24,000  Level Atlanta Center
Mon 02:07:43 PM 36.4539 -81.0653 227° Southwest 446 513 24,000  Level Atlanta Center
Mon 02:08:43 PM 36.3669 -81.1794 227° Southwest 446 513 24,000  Level Atlanta Center
Mon 02:09:43 PM 36.2800 -81.2958 227° Southwest 451 519 24,000  Level Atlanta Center
Mon 02:10:43 PM 36.1969 -81.4067 227° Southwest 451 519 24,000  Level Atlanta Center
Mon 02:11:43 PM 36.1075 -81.5200 226° Southwest 456 525 24,000  Level Atlanta Center
Mon 02:12:43 PM 36.0181 -81.6358 226° Southwest 462 532 24,000  Level Atlanta Center
Mon 02:13:43 PM 35.9325 -81.7486 227° Southwest 457 526 24,000  Level Atlanta Center
Mon 02:14:43 PM 35.8428 -81.8614 226° Southwest 457 526 24,000  Level Atlanta Center
Mon 02:15:43 PM 35.7572 -81.9736 227° Southwest 456 525 24,000  Level Atlanta Center
Mon 02:16:43 PM 35.6694 -82.0858 226° Southwest 456 525 24,000  Level Atlanta Center
Mon 02:17:43 PM 35.5792 -82.1978 225° Southwest 456 525 24,000  Level Atlanta Center
Mon 02:18:43 PM 35.4994 -82.2989 226° Southwest 462 532 24,000  Level Atlanta Center
Mon 02:19:43 PM 35.4111 -82.4106 226° Southwest 462 532 24,000  Level Atlanta Center
Mon 02:20:43 PM 35.3167 -82.5167 223° Southwest 467 537 24,000  Level Atlanta Center
Mon 02:21:43 PM 35.2258 -82.6125 221° Southwest 440 506 24,000  Level Atlanta Center
Mon 02:22:43 PM 35.1497 -82.7000 223° Southwest 401 461 24,000  Level Atlanta Center
Mon 02:23:43 PM 35.0714 -82.7850 222° Southwest 388 447 24,000 -200 Level Atlanta Center
Mon 02:24:43 PM 34.9928 -82.8675 221° Southwest 378 435 23,600 -750 Descending Atlanta Center
Mon 02:25:43 PM 34.9206 -82.9494 223° Southwest 378 435 22,500 -800 Descending Atlanta Center
Mon 02:26:43 PM 34.8503 -83.0189 219° Southwest 372 428 22,000 -250 Descending Atlanta Center
Mon 02:27:43 PM 34.7800 -83.1006 224° Southwest 361 415 22,000  Level Atlanta Center
Mon 02:28:43 PM 34.7011 -83.1822 220° Southwest 361 415 22,000  Level Atlanta Center
Mon 02:29:43 PM 34.6267 -83.2614 221° Southwest 361 415 22,000  Level Atlanta Center
Mon 02:30:43 PM 34.5542 -83.3428 223° Southwest 361 415 22,000  Level Atlanta Center
Mon 02:31:43 PM 34.4814 -83.4214 222° Southwest 355 409 22,000 -300 Level Atlanta Center
Mon 02:32:43 PM 34.4025 -83.5075 222° Southwest 355 409 21,400 -1,100 Descending Atlanta Center
Mon 02:33:43 PM 34.3339 -83.5811 222° Southwest 355 409 19,800 -1,850 Descending Atlanta Center
Mon 02:34:43 PM 34.2569 -83.6442 214° Southwest 346 398 17,700 -1,950 Descending Atlanta Center
Mon 02:35:43 PM 34.1903 -83.7200 223° Southwest 332 382 15,900 -1,800 Descending Atlanta Center
Mon 02:36:43 PM 34.1322 -83.7903 225° Southwest 319 367 14,100 -2,000 Descending Atlanta Center
Mon 02:37:43 PM 34.0697 -83.8633 224° Southwest 312 359 11,900 -1,860 Descending Atlanta Center
Mon 02:38:23 PM 34.0333 -83.9167 231° Southwest 289 333 11,000 -1,140 Descending Atlanta TRACON
Mon 02:39:23 PM 33.9833 -83.9667 220° Southwest 281 323 10,000 -567 Descending Atlanta TRACON
Mon 02:40:30 PM 33.8833 -83.9667 180° South 282 325 9,800 -472 Descending Atlanta TRACON
Mon 02:41:30 PM 33.8000 -83.9667 180° South 286 329 9,000 -750 Descending Atlanta TRACON
Mon 02:42:30 PM 33.7333 -83.9500 168° South 282 325 8,300 -947 Descending Atlanta TRACON
Mon 02:43:24 PM 33.6667 -83.9667 192° South 281 323 7,200 -1,068 Descending Atlanta TRACON
Mon 02:43:43 PM 33.6564 -83.9864 238° Southwest 246 283 7,000 -714 Descending Atlanta Center
Mon 02:45:30 PM 33.6333 -84.1333 259° West 238 274 5,700 -932 Descending Atlanta TRACON
Mon 02:46:24 PM 33.6333 -84.2000 270° West 216 249 4,500 -1,158 Descending Atlanta TRACON
Mon 02:47:24 PM 33.6333 -84.2667 270° West 212 244 3,500 -1,000 Descending Atlanta TRACON
Mon 02:48:24 PM 33.6333 -84.3333 270° West 179 206 2,500 -900 Descending Atlanta TRACON
Mon 02:49:24 PM 33.6333 -84.3833 270° West 154 177 1,700 -800 Descending Atlanta TRACON
Mon 02:51:00 PM 33.6333 -84.4167 220° Southwest  Level FlightAware Approximate
Mon 02:58:00 PM 33.6367 -84.4279 220° Southwest  Level Estimated

Login

Don't have an account? Register now (free) for customized features, flight alerts, and more!